Hlavní strana
METAR-TAF:

METAR-TAF

Letiště :

Stockholm-Arlanda, Švédsko

zeměpisná šířka: 59-39N, zeměpisná délka: 017-57E, výška: 38 m

Aktuální stav počasí

Zpráva byla vytvořena před 39 minutami, v 20:50 UTC
Jižní vítr 9 kt
Teplota 15°C
Vlhkost vzduchu 77%
Tlak 1006 hPa
Viditelnost 10 km a více
Žádná oblačnost pod 1500 m, nevyskytují se cumulonimby.

METAR: ESSA 182050Z 17009KT CAVOK 15/11 Q1006 NOSIG

Čas: 23:29 (21:29 UTC)

Předpověď počasí

Zpráva byla vytvořena před 3 hodinami a 59 minutami, v 17:30 UTC
Předpověď platná od 18 v 18 UTC do 19 v 18 UTC
Jihojihozápadní vítr 9 kt
Viditelnost 10 km a více
Polojasno ve výšce 2000 ft

TAF: ESSA 181730Z 1818/1918 20009KT 9999 SCT020

Stav a předpovědi počasí z více než 4 000 letišť (zprávy METAR a TAF).

Červené a žluté tečky na mapě představují dostupné meteorologické stanice.

Když kurzor umístíte na tečku, zobrazí se název stanice.

Pak kliknutím zobrazíte stav a předpověď počasí.

Chcete-li změnit mapu, kliknutím na zelené tlačítko se znaménkem +mapu přiblížíte, kliknutím na zelené tlačítko se znaménkem – mapu oddálíte a kliknutím na zelené šipky přejdete na sousední mapy.


METAR-TAF: